Time;durP1;ratioP1;P1;durP2;ratioP2;P2;SDS_P1;SDS_P2;PMS_P1;PMS_P2;Temp;Humidity;BMP_temperature;BMP_pressure;BME280_temperature;BME280_humidity;BME280_pressure;Samples;Min_cycle;Max_cycle;Signal;HPM_P1;HPM_P2
2023/06/07 00:02:26;;;;;;;11.68;6.53;;;;;;;15.52;100.00;101843.81;5265325;28;20028;-69
2023/06/07 00:04:57;;;;;;;15.05;7.07;;;;;;;15.49;100.00;101839.56;5267010;28;20055;-69
2023/06/07 00:07:29;;;;;;;14.60;6.80;;;;;;;15.38;100.00;101842.28;5269183;28;20468;-69
2023/06/07 00:10:00;;;;;;;13.50;6.53;;;;;;;15.37;100.00;101837.84;5267209;28;20025;-69
2023/06/07 00:12:33;;;;;;;10.82;6.55;;;;;;;15.38;100.00;101844.97;5269409;28;20025;-69
2023/06/07 00:15:05;;;;;;;12.27;6.72;;;;;;;15.26;100.00;101844.13;5264876;28;20407;-70
2023/06/07 00:17:37;;;;;;;12.32;7.20;;;;;;;15.22;100.00;101841.78;5267114;28;20067;-69
2023/06/07 00:20:09;;;;;;;11.02;6.80;;;;;;;15.16;100.00;101835.06;5266383;28;20550;-68
2023/06/07 00:22:40;;;;;;;12.20;6.50;;;;;;;15.14;100.00;101838.88;5267940;28;20058;-69
2023/06/07 00:25:12;;;;;;;15.23;7.18;;;;;;;15.13;100.00;101842.50;5267291;28;20067;-69
2023/06/07 00:27:43;;;;;;;13.75;7.50;;;;;;;15.09;100.00;101849.97;5267488;28;20382;-69
2023/06/07 00:30:17;;;;;;;14.77;7.53;;;;;;;15.03;100.00;101837.91;5266961;28;20093;-69
2023/06/07 00:32:48;;;;;;;12.45;7.45;;;;;;;15.05;100.00;101830.56;5266640;28;20024;-69
2023/06/07 00:35:19;;;;;;;12.18;7.05;;;;;;;15.00;100.00;101848.03;5266831;28;20021;-69
2023/06/07 00:37:51;;;;;;;11.30;7.03;;;;;;;15.07;100.00;101850.09;5266379;28;20064;-69
2023/06/07 00:40:22;;;;;;;14.40;7.50;;;;;;;15.01;100.00;101852.41;5267389;28;20062;-69
2023/06/07 00:42:54;;;;;;;12.90;7.07;;;;;;;14.95;100.00;101848.38;5263515;28;20043;-69
2023/06/07 00:45:25;;;;;;;12.38;7.10;;;;;;;14.95;100.00;101836.78;5267033;28;20032;-69
2023/06/07 00:47:57;;;;;;;11.00;7.35;;;;;;;14.94;100.00;101835.94;5266784;28;20028;-69
2023/06/07 00:50:29;;;;;;;15.07;7.82;;;;;;;15.03;100.00;101840.59;5266287;28;20032;-69
2023/06/07 00:53:02;;;;;;;13.48;7.15;;;;;;;14.87;100.00;101835.53;5261469;28;20063;-69
2023/06/07 00:55:34;;;;;;;15.80;7.22;;;;;;;14.90;100.00;101831.78;5267104;28;20052;-69
2023/06/07 00:58:06;;;;;;;12.10;6.50;;;;;;;14.83;100.00;101830.56;5262598;28;20136;-69
2023/06/07 01:00:37;;;;;;;11.95;7.15;;;;;;;14.83;100.00;101835.91;5264575;28;20035;-69
2023/06/07 01:03:09;;;;;;;15.25;7.25;;;;;;;14.78;100.00;101838.94;5267262;28;20431;-69
2023/06/07 01:05:41;;;;;;;13.68;7.15;;;;;;;14.73;100.00;101829.53;5269939;28;20038;-68
2023/06/07 01:08:13;;;;;;;15.70;7.43;;;;;;;14.73;100.00;101829.53;5266699;28;20533;-68
2023/06/07 01:10:45;;;;;;;15.38;7.32;;;;;;;14.69;100.00;101829.81;5271147;28;20036;-68
2023/06/07 01:13:18;;;;;;;12.77;7.50;;;;;;;14.66;100.00;101835.41;5264886;28;20047;-69
2023/06/07 01:15:49;;;;;;;13.15;7.63;;;;;;;14.59;100.00;101834.16;5266403;28;20069;-69
2023/06/07 01:18:25;;;;;;;10.82;7.15;;;;;;;14.56;100.00;101838.91;5260323;28;20379;-69
2023/06/07 01:20:59;;;;;;;12.93;7.80;;;;;;;14.53;100.00;101834.59;5264359;28;20139;-69
2023/06/07 01:23:32;;;;;;;11.05;6.85;;;;;;;14.57;100.00;101827.22;5268221;28;20032;-69
2023/06/07 01:26:04;;;;;;;14.50;7.30;;;;;;;14.52;100.00;101830.22;5265515;28;20032;-69
2023/06/07 01:28:41;;;;;;;20.10;7.78;;;;;;;14.48;100.00;101829.59;5268838;28;20411;-69
2023/06/07 01:31:14;;;;;;;14.75;7.68;;;;;;;14.44;100.00;101819.19;5266970;28;20639;-68
2023/06/07 01:33:47;;;;;;;12.03;6.93;;;;;;;14.44;100.00;101816.53;5263306;28;20037;-69
2023/06/07 01:36:19;;;;;;;13.82;7.40;;;;;;;14.36;100.00;101819.78;5268177;28;20439;-68
2023/06/07 01:38:51;;;;;;;14.30;7.57;;;;;;;14.37;100.00;101823.34;5266505;28;20020;-69
2023/06/07 01:41:25;;;;;;;12.25;6.88;;;;;;;14.37;100.00;101820.69;5268462;28;20033;-68
2023/06/07 01:43:57;;;;;;;;;;;;;;;14.46;100.00;101815.44;5269216;28;20039;-69
2023/06/07 01:46:29;;;;;;;14.23;7.47;;;;;;;14.32;100.00;101823.69;5266080;28;20020;-68
2023/06/07 01:49:03;;;;;;;14.07;7.50;;;;;;;14.29;100.00;101810.53;5269072;28;20079;-68
2023/06/07 01:51:35;;;;;;;14.02;7.85;;;;;;;14.30;100.00;101814.91;5264591;28;20051;-69
2023/06/07 01:54:06;;;;;;;14.65;7.53;;;;;;;14.25;100.00;101814.44;5266166;28;20111;-69
2023/06/07 01:57:09;;;;;;;15.00;8.63;;;;;;;14.27;100.00;101816.00;5267739;28;20039;-69
2023/06/07 01:59:58;;;;;;;13.70;7.50;;;;;;;14.28;100.00;101808.81;5263718;28;20055;-69
2023/06/07 02:03:00;;;;;;;14.85;8.10;;;;;;;14.21;100.00;101812.91;5263851;28;20036;-69
2023/06/07 02:05:34;;;;;;;14.93;7.57;;;;;;;14.23;100.00;101811.84;5270790;28;20039;-69
2023/06/07 02:08:17;;;;;;;15.18;7.75;;;;;;;14.20;100.00;101814.75;5271247;28;20041;-69
2023/06/07 02:10:51;;;;;;;13.80;7.90;;;;;;;14.10;100.00;101813.75;5269453;28;20032;-69
2023/06/07 02:13:23;;;;;;;14.05;7.35;;;;;;;14.09;100.00;101817.41;5264928;28;20040;-69
2023/06/07 02:15:54;;;;;;;14.27;7.93;;;;;;;13.99;100.00;101816.41;5270049;28;20029;-69
2023/06/07 02:18:26;;;;;;;14.68;9.32;;;;;;;14.03;100.00;101816.03;5272019;28;20028;-69
2023/06/07 02:20:57;;;;;;;14.52;8.65;;;;;;;13.90;100.00;101810.75;5267898;28;20036;-69
2023/06/07 02:23:29;;;;;;;16.20;7.97;;;;;;;13.87;100.00;101813.66;5266907;28;20039;-68
2023/06/07 02:26:01;;;;;;;14.07;9.00;;;;;;;13.85;100.00;101818.28;5269597;28;20847;-69
2023/06/07 02:28:32;;;;;;;14.80;8.45;;;;;;;13.88;100.00;101819.88;5265056;28;20580;-69
2023/06/07 02:31:04;;;;;;;14.48;8.63;;;;;;;13.81;100.00;101816.81;5262405;28;20157;-69
2023/06/07 02:33:35;;;;;;;14.23;8.30;;;;;;;13.81;100.00;101818.66;5264529;28;20394;-69
2023/06/07 02:36:06;;;;;;;13.75;8.88;;;;;;;13.76;100.00;101818.97;5274560;28;20032;-69
2023/06/07 02:38:38;;;;;;;13.57;8.00;;;;;;;13.78;100.00;101817.03;5275210;28;20107;-69
2023/06/07 02:41:09;;;;;;;16.42;9.45;;;;;;;13.71;100.00;101818.44;5276978;28;20830;-69
2023/06/07 02:43:43;;;;;;;17.17;9.05;;;;;;;13.75;100.00;101817.28;5276455;28;20032;-69
2023/06/07 02:46:14;;;;;;;18.27;9.10;;;;;;;13.70;100.00;101822.13;5274615;28;20089;-69
2023/06/07 02:48:46;;;;;;;15.57;8.70;;;;;;;13.66;100.00;101816.13;5272205;28;20024;-69
2023/06/07 02:51:17;;;;;;;13.98;8.80;;;;;;;13.66;100.00;101815.28;5269214;28;20374;-69
2023/06/07 02:53:49;;;;;;;17.73;8.70;;;;;;;13.60;100.00;101807.69;5270897;28;20470;-69
2023/06/07 02:56:21;;;;;;;18.92;8.60;;;;;;;13.61;100.00;101815.59;5276433;28;20024;-69
2023/06/07 02:58:52;;;;;;;16.85;8.63;;;;;;;13.60;100.00;101813.91;5269977;28;20029;-69
2023/06/07 03:01:27;;;;;;;14.80;8.82;;;;;;;13.53;100.00;101815.31;5267343;28;20024;-69
2023/06/07 03:03:58;;;;;;;;;;;;;;;13.62;100.00;101811.97;5270362;28;20036;-69
2023/06/07 03:06:29;;;;;;;19.73;9.30;;;;;;;13.47;100.00;101827.34;5268859;28;20311;-68
2023/06/07 03:09:01;;;;;;;17.35;8.90;;;;;;;13.42;100.00;101816.09;5275238;28;20551;-69
2023/06/07 03:11:32;;;;;;;17.02;9.23;;;;;;;13.40;100.00;101815.34;5270483;28;20390;-69
2023/06/07 03:14:04;;;;;;;15.57;9.50;;;;;;;13.37;100.00;101820.09;5268738;28;20044;-69
2023/06/07 03:16:35;;;;;;;17.27;8.82;;;;;;;13.36;100.00;101819.22;5267518;28;20082;-68
2023/06/07 03:19:06;;;;;;;16.75;8.93;;;;;;;13.33;100.00;101820.31;5268642;28;20549;-69
2023/06/07 03:21:38;;;;;;;16.40;8.90;;;;;;;13.27;100.00;101814.50;5267965;28;20024;-69
2023/06/07 03:24:13;;;;;;;15.27;8.80;;;;;;;13.30;100.00;101814.31;5269802;28;20112;-69
2023/06/07 03:26:45;;;;;;;17.15;9.32;;;;;;;13.37;100.00;101823.63;5269590;28;20499;-69
2023/06/07 03:29:16;;;;;;;18.45;9.65;;;;;;;13.38;100.00;101819.97;5268658;28;20082;-69
2023/06/07 03:31:47;;;;;;;14.88;8.50;;;;;;;13.34;100.00;101829.19;5268932;28;20078;-69
2023/06/07 03:34:19;;;;;;;15.73;8.77;;;;;;;13.30;100.00;101828.56;5268305;28;20032;-69
2023/06/07 03:36:51;;;;;;;14.40;9.05;;;;;;;13.31;100.00;101826.75;5270229;28;20036;-69
2023/06/07 03:39:22;;;;;;;17.50;8.52;;;;;;;13.35;100.00;101828.25;5268533;28;20039;-69
2023/06/07 03:41:54;;;;;;;18.08;8.43;;;;;;;13.30;100.00;101830.38;5267113;28;20181;-69
2023/06/07 03:44:25;;;;;;;14.90;9.73;;;;;;;13.31;100.00;101824.94;5269499;28;20138;-69
2023/06/07 03:46:57;;;;;;;13.43;8.55;;;;;;;13.29;100.00;101820.63;5267598;28;20028;-69
2023/06/07 03:49:28;;;;;;;17.77;8.88;;;;;;;13.27;100.00;101827.88;5265340;28;20448;-69
2023/06/07 03:52:00;;;;;;;14.52;9.07;;;;;;;13.28;100.00;101826.94;5265791;28;20033;-69
2023/06/07 03:54:31;;;;;;;17.20;8.95;;;;;;;13.19;100.00;101823.09;5267150;28;20028;-69
2023/06/07 03:57:03;;;;;;;16.17;8.85;;;;;;;13.18;100.00;101834.78;5267574;28;20032;-69
2023/06/07 03:59:34;;;;;;;14.73;8.63;;;;;;;13.18;100.00;101828.56;5268562;28;20029;-69
2023/06/07 04:02:07;;;;;;;14.82;8.13;;;;;;;13.17;100.00;101832.22;5268831;28;20039;-69
2023/06/07 04:04:38;;;;;;;14.60;8.27;;;;;;;13.20;100.00;101830.16;5269866;28;20028;-69
2023/06/07 04:07:10;;;;;;;13.75;8.65;;;;;;;13.26;100.00;101831.56;5266956;28;20469;-68
2023/06/07 04:09:41;;;;;;;17.80;8.82;;;;;;;13.22;100.00;101835.44;5271642;28;20149;-69
2023/06/07 04:12:13;;;;;;;15.82;8.68;;;;;;;13.26;100.00;101839.59;5270328;28;20039;-69
2023/06/07 04:14:44;;;;;;;19.00;9.40;;;;;;;13.19;100.00;101836.47;5272533;28;20056;-69
2023/06/07 04:17:16;;;;;;;13.52;8.70;;;;;;;13.14;100.00;101828.78;5269656;28;20024;-69
2023/06/07 04:19:54;;;;;;;12.38;8.38;;;;;;;13.20;100.00;101829.31;5267915;28;20087;-68
2023/06/07 04:22:26;;;;;;;15.48;8.43;;;;;;;13.17;100.00;101830.38;5269428;28;20084;-69
2023/06/07 04:24:57;;;;;;;17.10;8.80;;;;;;;13.16;100.00;101825.16;5265462;28;20025;-68
2023/06/07 04:27:29;;;;;;;19.13;8.57;;;;;;;13.16;100.00;101835.88;5268720;28;20622;-69
2023/06/07 04:30:02;;;;;;;14.65;8.40;;;;;;;13.13;100.00;101832.44;5272522;28;20074;-69
2023/06/07 04:32:34;;;;;;;13.93;7.95;;;;;;;13.16;100.00;101833.19;5271909;28;20127;-69
2023/06/07 04:35:05;;;;;;;16.52;8.27;;;;;;;13.19;100.00;101831.13;5269096;28;20432;-69
2023/06/07 04:37:37;;;;;;;11.98;7.97;;;;;;;13.16;100.00;101830.50;5269316;28;20044;-69
2023/06/07 04:40:09;;;;;;;15.50;8.20;;;;;;;13.24;100.00;101830.81;5269277;28;20070;-69
2023/06/07 04:42:46;;;;;;;13.88;8.05;;;;;;;13.23;100.00;101821.03;5266627;28;20473;-69
2023/06/07 04:45:17;;;;;;;14.50;7.80;;;;;;;13.23;100.00;101827.28;5270351;28;20382;-68
2023/06/07 04:47:49;;;;;;;17.10;8.80;;;;;;;13.28;100.00;101827.78;5265354;28;20060;-69
2023/06/07 04:50:21;;;;;;;13.57;7.82;;;;;;;13.26;100.00;101839.59;5266834;28;20432;-69
2023/06/07 04:53:00;;;;;;;15.88;8.30;;;;;;;13.24;100.00;101842.38;5271028;28;20040;-69
2023/06/07 04:55:34;;;;;;;16.08;8.07;;;;;;;13.25;100.00;101840.53;5263920;28;20060;-69
2023/06/07 04:58:06;;;;;;;18.77;9.23;;;;;;;13.23;100.00;101835.31;5262922;28;20042;-69
2023/06/07 05:00:38;;;;;;;15.10;8.32;;;;;;;13.23;100.00;101834.44;5267511;28;20033;-69
2023/06/07 05:03:21;;;;;;;16.35;8.63;;;;;;;13.19;100.00;101841.00;5267306;28;20024;-69
2023/06/07 05:05:53;;;;;;;17.10;8.15;;;;;;;13.28;100.00;101845.69;5263069;28;20146;-69
2023/06/07 05:08:26;;;;;;;14.85;9.18;;;;;;;13.21;100.00;101831.91;5266742;28;20478;-69
2023/06/07 05:10:58;;;;;;;14.40;8.38;;;;;;;13.22;100.00;101840.78;5269960;28;20440;-69
2023/06/07 05:13:29;;;;;;;15.15;7.85;;;;;;;13.31;100.00;101842.84;5261028;28;20433;-69
2023/06/07 05:16:01;;;;;;;17.30;8.75;;;;;;;13.22;100.00;101843.47;5266615;28;20031;-69
2023/06/07 05:18:32;;;;;;;16.35;8.65;;;;;;;13.23;100.00;101842.47;5272431;28;20021;-69
2023/06/07 05:21:03;;;;;;;13.95;8.52;;;;;;;13.28;100.00;101848.38;5260650;28;20097;-69
2023/06/07 05:23:36;;;;;;;16.70;8.52;;;;;;;13.29;100.00;101853.63;5268161;28;20421;-70
2023/06/07 05:26:08;;;;;;;15.98;8.05;;;;;;;13.25;100.00;101843.22;5271951;28;20028;-71
2023/06/07 05:28:39;;;;;;;13.23;7.95;;;;;;;13.31;100.00;101856.25;5269162;28;20031;-72
2023/06/07 05:31:11;;;;;;;16.23;8.95;;;;;;;13.44;100.00;101850.84;5274725;28;20036;-72
2023/06/07 05:33:43;;;;;;;16.02;8.32;;;;;;;13.44;100.00;101843.66;5267931;28;20024;-72
2023/06/07 05:36:15;;;;;;;13.45;8.15;;;;;;;13.51;100.00;101847.59;5276058;28;20081;-72
2023/06/07 05:38:46;;;;;;;15.57;8.68;;;;;;;13.49;100.00;101852.22;5272219;28;20367;-71
2023/06/07 05:41:18;;;;;;;16.08;8.70;;;;;;;13.65;100.00;101848.41;5275547;28;20509;-73
2023/06/07 05:43:49;;;;;;;13.45;8.13;;;;;;;13.69;100.00;101858.81;5266139;28;20057;-72
2023/06/07 05:46:21;;;;;;;16.02;7.90;;;;;;;13.61;100.00;101865.69;5264734;28;20077;-72
2023/06/07 05:48:52;;;;;;;15.55;8.95;;;;;;;13.57;100.00;101861.53;5272988;28;20236;-72
2023/06/07 05:51:24;;;;;;;13.90;8.77;;;;;;;13.64;100.00;101858.28;5275652;28;20032;-72
2023/06/07 05:53:55;;;;;;;17.52;8.77;;;;;;;13.67;100.00;101859.88;5270778;28;20042;-72
2023/06/07 05:56:27;;;;;;;15.70;8.27;;;;;;;13.73;100.00;101857.63;5276347;28;20094;-72
2023/06/07 05:58:59;;;;;;;16.40;9.48;;;;;;;13.89;100.00;101865.38;5272580;28;20032;-72
2023/06/07 06:01:30;;;;;;;13.60;8.18;;;;;;;13.95;100.00;101868.59;5268209;28;20032;-72
2023/06/07 06:04:02;;;;;;;16.75;8.50;;;;;;;13.87;100.00;101869.16;5274537;28;20024;-72
2023/06/07 06:06:36;;;;;;;17.25;8.77;;;;;;;13.90;100.00;101861.75;5267572;28;20044;-71
2023/06/07 06:09:07;;;;;;;15.83;8.40;;;;;;;13.92;100.00;101865.16;5274837;28;20040;-72
2023/06/07 06:11:38;;;;;;;15.80;8.85;;;;;;;14.02;100.00;101876.06;5271884;28;20190;-72
2023/06/07 06:14:10;;;;;;;13.20;8.90;;;;;;;14.01;100.00;101874.34;5251520;28;20063;-72
2023/06/07 06:16:41;;;;;;;16.10;8.90;;;;;;;14.04;100.00;101876.78;5264294;28;20036;-72
2023/06/07 06:19:13;;;;;;;12.73;8.35;;;;;;;14.06;100.00;101872.16;5265855;28;20029;-72
2023/06/07 06:21:44;;;;;;;16.33;8.82;;;;;;;14.20;100.00;101876.50;5265841;28;20423;-72
2023/06/07 06:24:15;;;;;;;14.00;8.48;;;;;;;14.16;100.00;101880.38;5267012;28;20032;-72
2023/06/07 06:26:47;;;;;;;16.25;8.50;;;;;;;14.18;100.00;101874.91;5266720;28;20070;-72
2023/06/07 06:29:18;;;;;;;14.02;8.30;;;;;;;14.17;100.00;101882.13;5266873;28;20059;-72
2023/06/07 06:31:50;;;;;;;16.10;8.40;;;;;;;14.22;100.00;101874.56;5267449;28;20513;-72
2023/06/07 06:34:21;;;;;;;17.42;8.50;;;;;;;14.36;100.00;101884.22;5264481;28;20086;-71
2023/06/07 06:36:53;;;;;;;16.25;8.80;;;;;;;14.39;100.00;101894.75;5269840;28;20081;-72
2023/06/07 06:39:25;;;;;;;18.60;8.60;;;;;;;14.46;100.00;101887.09;5265859;28;20470;-71
2023/06/07 06:41:56;;;;;;;14.82;8.75;;;;;;;14.40;100.00;101890.22;5265132;28;20028;-70
2023/06/07 06:44:28;;;;;;;16.88;8.85;;;;;;;14.42;100.00;101886.47;5269678;28;20077;-71
2023/06/07 06:47:00;;;;;;;13.93;8.88;;;;;;;14.36;100.00;101886.91;5269944;28;20087;-71
2023/06/07 06:49:31;;;;;;;13.50;7.80;;;;;;;14.37;100.00;101895.84;5269502;28;20524;-71
2023/06/07 06:52:03;;;;;;;15.82;8.15;;;;;;;14.38;100.00;101893.06;5265642;28;20026;-71
2023/06/07 06:54:35;;;;;;;17.83;8.35;;;;;;;14.38;100.00;101892.19;5269647;28;20107;-71
2023/06/07 06:57:08;;;;;;;13.20;7.90;;;;;;;14.41;100.00;101900.00;5266591;28;20248;-71
2023/06/07 06:59:39;;;;;;;15.02;8.00;;;;;;;14.51;100.00;101896.50;5271755;28;20028;-71
2023/06/07 07:02:10;;;;;;;15.05;8.30;;;;;;;14.62;100.00;101895.72;5268412;28;20025;-71
2023/06/07 07:04:42;;;;;;;15.57;8.68;;;;;;;14.68;100.00;101902.44;5267933;28;20105;-71
2023/06/07 07:07:13;;;;;;;16.08;8.32;;;;;;;14.72;100.00;101905.75;5268200;28;20460;-71
2023/06/07 07:09:45;;;;;;;14.38;8.02;;;;;;;14.79;100.00;101915.06;5266072;28;20040;-71
2023/06/07 07:12:16;;;;;;;14.52;8.10;;;;;;;14.90;100.00;101905.19;5270403;28;20033;-71
2023/06/07 07:14:47;;;;;;;14.43;8.43;;;;;;;15.06;100.00;101914.72;5263915;28;20119;-71
2023/06/07 07:17:20;;;;;;;15.15;8.73;;;;;;;15.05;100.00;101913.88;5268778;28;20044;-71
2023/06/07 07:19:53;;;;;;;14.73;7.68;;;;;;;15.16;100.00;101904.97;5267868;28;20032;-71
2023/06/07 07:22:25;;;;;;;16.25;7.47;;;;;;;15.18;100.00;101911.06;5266904;28;20033;-71
2023/06/07 07:24:58;;;;;;;15.30;7.97;;;;;;;15.28;100.00;101908.50;5272437;28;20473;-71
2023/06/07 07:27:29;;;;;;;15.95;8.18;;;;;;;15.46;100.00;101909.72;5272826;28;20040;-72
2023/06/07 07:30:02;;;;;;;14.32;8.00;;;;;;;15.64;100.00;101912.75;5269456;28;20021;-72
2023/06/07 07:32:33;;;;;;;13.32;8.13;;;;;;;15.65;100.00;101917.19;5265408;28;20042;-72
2023/06/07 07:35:05;;;;;;;17.02;8.88;;;;;;;15.72;100.00;101914.81;5269720;28;20021;-72
2023/06/07 07:37:38;;;;;;;15.00;8.32;;;;;;;15.81;100.00;101906.03;5264649;28;20577;-72
2023/06/07 07:40:10;;;;;;;13.65;7.53;;;;;;;15.86;100.00;101914.59;5267026;28;20037;-71
2023/06/07 07:42:41;;;;;;;13.48;7.50;;;;;;;15.91;100.00;101916.06;5273155;28;20119;-71
2023/06/07 07:45:14;;;;;;;14.88;7.35;;;;;;;16.00;100.00;101908.06;5269505;28;20024;-71
2023/06/07 07:47:45;;;;;;;14.80;7.80;;;;;;;16.09;100.00;101909.16;5273757;28;20120;-72
2023/06/07 07:50:16;;;;;;;15.43;7.97;;;;;;;16.11;100.00;101920.66;5275309;28;20367;-71
2023/06/07 07:52:48;;;;;;;15.40;7.88;;;;;;;16.19;100.00;101920.03;5271886;28;20033;-71
2023/06/07 07:55:21;;;;;;;14.52;7.88;;;;;;;16.20;100.00;101913.63;5272278;28;20036;-71
2023/06/07 07:57:52;;;;;;;16.02;8.20;;;;;;;16.35;100.00;101922.28;5268422;28;20028;-71
2023/06/07 08:00:24;;;;;;;14.80;7.85;;;;;;;16.35;100.00;101927.66;5273230;28;20066;-72
2023/06/07 08:02:56;;;;;;;14.73;8.18;;;;;;;16.54;100.00;101922.44;5274189;28;20059;-71
2023/06/07 08:05:27;;;;;;;13.70;7.82;;;;;;;16.58;100.00;101926.56;5272604;28;20024;-72
2023/06/07 08:08:00;;;;;;;14.07;7.70;;;;;;;16.67;100.00;101923.09;5269441;28;20478;-71
2023/06/07 08:10:31;;;;;;;13.55;7.45;;;;;;;16.67;100.00;101927.66;5268098;28;20029;-72
2023/06/07 08:13:03;;;;;;;17.05;7.55;;;;;;;16.73;100.00;101923.56;5269201;28;20051;-71
2023/06/07 08:15:34;;;;;;;14.75;7.95;;;;;;;16.90;100.00;101922.16;5272864;28;20032;-71
2023/06/07 08:18:06;;;;;;;13.10;7.47;;;;;;;17.03;100.00;101920.97;5264723;28;20029;-71
2023/06/07 08:20:38;;;;;;;14.93;7.85;;;;;;;17.22;100.00;101913.94;5277324;28;20439;-69
2023/06/07 08:23:09;;;;;;;16.48;7.85;;;;;;;17.19;100.00;101914.22;5278216;28;20051;-69
2023/06/07 08:25:41;;;;;;;14.73;7.53;;;;;;;17.19;100.00;101914.22;5274449;28;20047;-69
2023/06/07 08:28:12;;;;;;;15.77;8.20;;;;;;;17.21;100.00;101915.78;5269340;28;20089;-68
2023/06/07 08:30:43;;;;;;;12.90;7.93;;;;;;;17.23;100.00;101908.41;5267765;28;20032;-68
2023/06/07 08:33:15;;;;;;;16.38;7.80;;;;;;;17.21;100.00;101913.09;5270712;28;20153;-69
2023/06/07 08:35:46;;;;;;;17.27;8.07;;;;;;;17.21;100.00;101906.84;5291951;28;20474;-69
2023/06/07 08:38:18;;;;;;;12.65;7.25;;;;;;;17.38;100.00;101906.22;5282631;28;20119;-69
2023/06/07 08:40:53;;;;;;;15.05;7.55;;;;;;;17.49;100.00;101905.28;5279233;28;20028;-69
2023/06/07 08:43:25;;;;;;;13.73;7.53;;;;;;;17.58;100.00;101896.31;5281676;28;20020;-70
2023/06/07 08:45:57;;;;;;;10.40;7.20;;;;;;;17.72;100.00;101896.94;5277450;28;20035;-72
2023/06/07 08:48:31;;;;;;;13.82;7.45;;;;;;;17.87;100.00;101898.28;5272290;28;20530;-69
2023/06/07 08:51:04;;;;;;;13.45;7.30;;;;;;;17.97;100.00;101911.81;5284718;28;20027;-70
2023/06/07 08:54:07;;;;;;;14.10;7.35;;;;;;;18.17;100.00;101907.28;5270824;28;20032;-70
2023/06/07 08:56:38;;;;;;;12.20;7.20;;;;;;;18.23;100.00;101904.00;5261671;28;20032;-70
2023/06/07 08:59:10;;;;;;;16.02;8.68;;;;;;;18.16;100.00;101905.56;5273127;28;20040;-69
2023/06/07 09:01:43;;;;;;;15.13;7.50;;;;;;;18.38;100.00;101912.56;5279394;28;20020;-68
2023/06/07 09:04:16;;;;;;;15.68;7.75;;;;;;;18.55;100.00;101903.72;5280895;28;20407;-69
2023/06/07 09:06:48;;;;;;;17.17;7.50;;;;;;;18.65;100.00;101909.09;5283643;28;20047;-69
2023/06/07 09:09:20;;;;;;;15.40;8.07;;;;;;;18.58;100.00;101900.75;5276077;28;20021;-69
2023/06/07 09:11:52;;;;;;;14.88;8.18;;;;;;;18.55;100.00;101911.81;5270957;28;20037;-69
2023/06/07 09:14:25;;;;;;;12.68;7.13;;;;;;;18.72;100.00;101910.25;5269572;28;20032;-69
2023/06/07 09:16:59;;;;;;;13.45;7.15;;;;;;;18.69;100.00;101912.38;5271614;28;20068;-69
2023/06/07 09:19:38;;;;;;;16.48;8.40;;;;;;;18.74;100.00;101915.50;5266574;28;20056;-69
2023/06/07 09:22:14;;;;;;;16.38;8.27;;;;;;;18.89;100.00;101910.50;5273121;28;20032;-69
2023/06/07 09:24:46;;;;;;;13.63;7.35;;;;;;;19.04;100.00;101903.63;5277619;28;20020;-70
2023/06/07 09:27:31;;;;;;;12.88;7.43;;;;;;;19.32;100.00;101909.94;5264159;28;20032;-69
2023/06/07 09:30:04;;;;;;;11.52;6.35;;;;;;;19.39;100.00;101902.94;5274348;28;20153;-69
2023/06/07 09:32:37;;;;;;;11.32;6.32;;;;;;;19.56;100.00;101906.72;5274764;28;20201;-69
2023/06/07 09:35:16;;;;;;;14.18;6.93;;;;;;;19.67;100.00;101907.50;5285446;28;20035;-69
2023/06/07 09:37:52;;;;;;;14.15;6.78;;;;;;;19.70;100.00;101910.78;5264265;28;20044;-69
2023/06/07 09:40:24;;;;;;;13.68;6.65;;;;;;;19.93;100.00;101907.69;5275620;28;20275;-69
2023/06/07 09:42:58;;;;;;;14.02;7.30;;;;;;;19.85;100.00;101907.56;5279587;28;20032;-70
2023/06/07 09:45:30;;;;;;;13.60;7.20;;;;;;;19.97;100.00;101904.50;5270345;28;20077;-71
2023/06/07 09:48:09;;;;;;;14.20;7.60;;;;;;;20.04;100.00;101899.34;5271141;28;20025;-71
2023/06/07 09:50:57;;;;;;;12.90;6.90;;;;;;;20.13;100.00;101903.81;5276366;28;20027;-71
2023/06/07 09:53:52;;;;;;;15.98;7.28;;;;;;;20.13;100.00;101901.09;5272680;28;20097;-72
2023/06/07 09:56:24;;;;;;;12.13;7.30;;;;;;;20.30;100.00;101899.38;5273786;28;20036;-72
2023/06/07 09:59:06;;;;;;;12.35;6.80;;;;;;;20.44;100.00;101899.84;5268671;28;20037;-71
2023/06/07 10:01:42;;;;;;;13.77;7.70;;;;;;;20.64;100.00;101906.00;5278191;28;20043;-71
2023/06/07 10:04:14;;;;;;;15.32;7.13;;;;;;;20.67;100.00;101911.06;5265024;28;20071;-72
2023/06/07 10:06:48;;;;;;;12.85;7.07;;;;;;;20.69;100.00;101909.06;5267038;28;20124;-71
2023/06/07 10:09:20;;;;;;;10.65;6.75;;;;;;;20.81;100.00;101896.13;5271288;28;20028;-72
2023/06/07 10:11:57;;;;;;;14.73;7.47;;;;;;;20.70;100.00;101900.78;5278836;28;20090;-72
2023/06/07 10:14:30;;;;;;;13.50;7.22;;;;;;;20.79;100.00;101898.97;5276562;28;20035;-71
2023/06/07 10:17:10;;;;;;;14.95;7.93;;;;;;;20.71;100.00;101894.34;5271504;28;20027;-71
2023/06/07 10:19:45;;;;;;;18.60;7.95;;;;;;;20.67;100.00;101900.22;5276776;28;20079;-71
2023/06/07 10:22:22;;;;;;;11.80;8.00;;;;;;;20.61;100.00;101890.88;5274491;28;20046;-71
2023/06/07 10:24:56;;;;;;;14.82;7.50;;;;;;;20.65;100.00;101894.13;5274698;28;20310;-72
2023/06/07 10:27:37;;;;;;;12.02;7.05;;;;;;;20.72;100.00;101900.63;5263045;28;20036;-71
2023/06/07 10:30:13;;;;;;;14.52;6.93;;;;;;;20.76;100.00;101900.13;5267526;28;20028;-71
2023/06/07 10:32:46;;;;;;;15.02;7.95;;;;;;;20.89;100.00;101898.88;5275267;28;20517;-71
2023/06/07 10:35:19;;;;;;;11.30;6.78;;;;;;;20.85;100.00;101903.75;5267491;28;20498;-70
2023/06/07 10:37:55;;;;;;;15.93;7.70;;;;;;;20.83;100.00;101897.66;5271980;28;20029;-71
2023/06/07 10:40:27;;;;;;;16.58;8.45;;;;;;;20.72;100.00;101898.75;5269294;28;20021;-72
2023/06/07 10:42:59;;;;;;;14.57;7.22;;;;;;;20.71;100.00;101902.50;5269552;28;20067;-72
2023/06/07 10:45:30;;;;;;;12.82;7.10;;;;;;;20.70;100.00;101894.50;5273961;28;20028;-70
2023/06/07 10:48:34;;;;;;;19.10;8.02;;;;;;;20.82;100.00;101895.94;5277650;28;20520;-70
2023/06/07 10:51:06;;;;;;;10.93;7.43;;;;;;;20.74;100.00;101885.03;5269554;28;20044;-72
2023/06/07 10:54:00;;;;;;;15.93;7.40;;;;;;;20.84;100.00;101890.34;5267498;28;20701;-72
2023/06/07 10:56:36;;;;;;;12.52;7.80;;;;;;;20.63;100.00;101891.56;5265035;28;20101;-72
2023/06/07 10:59:14;;;;;;;14.25;7.93;;;;;;;20.71;100.00;101897.06;5277041;28;20510;-73
2023/06/07 11:01:46;;;;;;;15.82;8.25;;;;;;;20.61;100.00;101887.31;5270717;28;20025;-72
2023/06/07 11:04:30;;;;;;;11.65;7.38;;;;;;;20.67;100.00;101883.97;5268465;28;20038;-73
2023/06/07 11:07:25;;;;;;;13.25;7.32;;;;;;;20.67;100.00;101890.25;5275971;28;20127;-73
2023/06/07 11:10:00;;;;;;;13.55;8.27;;;;;;;20.57;100.00;101886.75;5271578;28;20107;-73
2023/06/07 11:12:46;;;;;;;10.75;7.40;;;;;;;20.52;100.00;101887.22;5272394;28;20505;-72
2023/06/07 11:15:17;;;;;;;12.23;6.90;;;;;;;20.50;100.00;101888.38;5286151;28;20032;-73
2023/06/07 11:18:04;;;;;;;14.60;7.53;;;;;;;20.54;100.00;101885.19;5281736;28;20426;-73
2023/06/07 11:20:36;;;;;;;11.48;7.50;;;;;;;20.58;100.00;101885.75;5280184;28;20020;-73
2023/06/07 11:23:21;;;;;;;12.30;6.88;;;;;;;20.64;100.00;101879.72;5269896;28;20052;-73
2023/06/07 11:26:04;;;;;;;12.43;7.55;;;;;;;20.69;100.00;101873.81;5273024;28;20081;-73
2023/06/07 11:28:37;;;;;;;11.52;7.40;;;;;;;20.66;100.00;101866.84;5268709;28;20039;-73
2023/06/07 11:31:12;;;;;;;13.38;7.65;;;;;;;20.54;100.00;101871.66;5283556;28;20024;-73
2023/06/07 11:33:44;;;;;;;14.10;7.35;;;;;;;20.67;100.00;101868.56;5283676;28;20047;-73
2023/06/07 11:36:15;;;;;;;12.93;7.30;;;;;;;20.63;100.00;101869.03;5279006;28;20036;-73
2023/06/07 11:38:52;;;;;;;14.50;7.60;;;;;;;20.55;100.00;101864.34;5276041;28;20157;-73